createdAt,value
2017-07-06T00:00:03.413Z,65.52
2017-07-06T00:05:03.294Z,64.95
2017-07-06T00:10:02.603Z,64.28
2017-07-06T00:15:02.872Z,63.67
2017-07-06T00:20:03.311Z,63.29
2017-07-06T00:25:02.717Z,62.71
2017-07-06T00:30:03.159Z,62.2
2017-07-06T00:35:02.592Z,62.2
2017-07-06T00:40:02.945Z,61.63
2017-07-06T00:45:03.413Z,61.24
2017-07-06T00:50:02.788Z,60.57
2017-07-06T00:55:03.365Z,60.09
2017-07-06T01:00:02.695Z,59.9
2017-07-06T01:05:03.005Z,59.58
2017-07-06T01:10:03.475Z,59.11
2017-07-06T01:15:02.965Z,58.72
2017-07-06T01:20:03.526Z,58.15
2017-07-06T01:25:02.845Z,57.95
2017-07-06T01:30:03.117Z,57.57
2017-07-06T01:35:03.426Z,57.38
2017-07-06T01:40:02.961Z,57.28
2017-07-06T01:45:03.562Z,57.06
2017-07-06T01:50:02.920Z,56.77
2017-07-06T01:55:03.345Z,56.59
2017-07-06T02:00:02.809Z,56.3
2017-07-06T02:05:03.208Z,56.3
2017-07-06T02:10:02.778Z,56.3
2017-07-06T02:15:03.084Z,56.2
2017-07-06T02:20:03.477Z,56.01
2017-07-06T02:25:02.802Z,55.73
2017-07-06T02:30:03.122Z,55.51
2017-07-06T02:35:03.493Z,55.41
2017-07-06T02:40:02.980Z,55.31
2017-07-06T02:45:03.219Z,55.02
2017-07-06T02:50:02.655Z,54.93
2017-07-06T02:55:03.090Z,55.02
2017-07-06T03:00:03.424Z,54.93
2017-07-06T03:05:02.847Z,54.93
2017-07-06T03:10:03.370Z,54.71
2017-07-06T03:15:02.806Z,54.52
2017-07-06T03:20:03.146Z,54.43
2017-07-06T03:25:03.494Z,54.33
2017-07-06T03:30:02.997Z,54.14
2017-07-06T03:35:03.510Z,53.94
2017-07-06T03:40:02.780Z,53.94
2017-07-06T03:45:03.250Z,53.75
2017-07-06T03:50:02.819Z,53.56
2017-07-06T03:55:03.156Z,53.56
2017-07-06T04:00:02.876Z,53.37
2017-07-06T04:05:03.183Z,53.37
2017-07-06T04:10:03.538Z,53.08
2017-07-06T04:15:02.837Z,52.99
2017-07-06T04:20:03.269Z,52.99
2017-07-06T04:25:02.611Z,52.89
2017-07-06T04:30:03.314Z,52.92
2017-07-06T04:35:02.894Z,52.92
2017-07-06T04:40:03.346Z,52.92
2017-07-06T04:45:02.725Z,52.92
2017-07-06T04:50:03.229Z,53.04
2017-07-06T04:55:02.695Z,53.23
2017-07-06T05:00:03.052Z,53.42
2017-07-06T05:05:02.621Z,53.93
2017-07-06T05:10:03.104Z,54.22
2017-07-06T05:15:03.394Z,54.32
2017-07-06T05:20:02.901Z,54.63
2017-07-06T05:25:03.383Z,55.4
2017-07-06T05:30:02.677Z,55.8
2017-07-06T05:35:02.911Z,56.48
2017-07-06T05:40:03.482Z,57.65
2017-07-06T05:45:02.986Z,58.26
2017-07-06T05:50:03.518Z,59.61
2017-07-06T05:55:02.985Z,60.98
2017-07-06T06:00:03.251Z,62.13
2017-07-06T06:05:03.506Z,63.22
2017-07-06T06:10:02.907Z,65.37
2017-07-06T06:15:03.152Z,67.13
2017-07-06T06:20:03.587Z,68.8
2017-07-06T06:25:03.049Z,70.86
2017-07-06T06:30:03.313Z,73.39
2017-07-06T06:35:02.605Z,75.55
2017-07-06T06:40:03.098Z,76.57
2017-07-06T06:45:03.459Z,75.84
2017-07-06T06:50:02.915Z,77.03
2017-07-06T06:55:03.226Z,80.58
2017-07-06T07:00:03.523Z,82.03
2017-07-06T07:05:02.969Z,84.43
2017-07-06T07:10:03.269Z,86.83
2017-07-06T07:15:02.739Z,89.39
2017-07-06T07:20:03.015Z,91.18
2017-07-06T07:25:03.296Z,92.1
2017-07-06T07:30:02.967Z,92.05
2017-07-06T07:35:03.389Z,93.7
2017-07-06T07:40:02.685Z,95.63
2017-07-06T07:45:02.939Z,96.45
2017-07-06T07:50:03.265Z,98.49
2017-07-06T07:55:02.661Z,99.32
2017-07-06T08:00:03.100Z,99.65
2017-07-06T08:05:02.638Z,99.7
2017-07-06T08:10:03.055Z,98.73
2017-07-06T08:15:03.330Z,98.39
2017-07-06T08:20:02.826Z,94.39
2017-07-06T08:25:03.168Z,90.73
2017-07-06T08:30:03.480Z,86.97
2017-07-06T08:35:02.984Z,83.11
2017-07-06T08:40:03.544Z,77.28
2017-07-06T08:45:02.976Z,74.03
2017-07-06T08:50:03.395Z,72.82
2017-07-06T08:55:02.698Z,71.13
2017-07-06T09:00:03.223Z,68.62
2017-07-06T09:05:02.730Z,68.16
2017-07-06T09:10:03.034Z,65.36
2017-07-06T09:15:03.520Z,65.2
2017-07-06T09:20:02.964Z,63.89
2017-07-06T09:25:03.402Z,63.72
2017-07-06T09:30:02.571Z,62.21
2017-07-06T09:35:02.884Z,60.31
2017-07-06T09:40:03.313Z,59.53
2017-07-06T09:45:02.739Z,59.25
2017-07-06T09:50:03.104Z,60.68
2017-07-06T09:55:02.607Z,58.04
2017-07-06T10:00:02.927Z,59.28
2017-07-06T10:05:03.423Z,58.72
2017-07-06T10:10:02.742Z,56.68
2017-07-06T10:15:03.175Z,54.69
2017-07-06T10:20:03.526Z,54.99
2017-07-06T10:25:02.853Z,54.86
2017-07-06T10:30:03.342Z,55.62
2017-07-06T10:35:02.710Z,54.72
2017-07-06T10:40:03.239Z,54.3
2017-07-06T10:45:02.737Z,54.84
2017-07-06T10:50:03.089Z,51.47
2017-07-06T10:55:03.490Z,50.66
2017-07-06T11:00:02.900Z,50.46
2017-07-06T11:05:03.254Z,49.62
2017-07-06T11:10:02.819Z,50.02
2017-07-06T11:15:03.142Z,51.07
2017-07-06T11:20:03.464Z,51.05
2017-07-06T11:25:02.935Z,51.79
2017-07-06T11:30:03.416Z,50.24
2017-07-06T11:35:02.730Z,51.3
2017-07-06T11:40:03.057Z,52.36
2017-07-06T11:45:03.508Z,51.86
2017-07-06T11:50:02.764Z,51.72
2017-07-06T11:55:03.256Z,52.65
2017-07-06T12:00:02.709Z,51.22
2017-07-06T12:05:03.085Z,50.12
2017-07-06T12:10:03.581Z,50.42
2017-07-06T12:15:03.083Z,51.03
2017-07-06T12:20:03.546Z,49.26
2017-07-06T12:25:02.981Z,49.01
2017-07-06T12:30:03.337Z,50.85
2017-07-06T12:35:02.681Z,49.33
2017-07-06T12:40:03.160Z,48.94
2017-07-06T12:45:03.434Z,49.62
2017-07-06T12:50:02.675Z,50.51
2017-07-06T12:55:02.912Z,50.95
2017-07-06T13:00:03.129Z,51.52
2017-07-06T13:05:02.612Z,51.12
2017-07-06T13:10:02.994Z,50.76
2017-07-06T13:15:03.349Z,50.59
2017-07-06T13:20:02.888Z,50.39
2017-07-06T13:25:03.247Z,50.66
2017-07-06T13:30:02.732Z,51.74
2017-07-06T13:35:03.185Z,52.55
2017-07-06T13:40:03.496Z,53.86
2017-07-06T13:45:02.937Z,54.11
2017-07-06T13:50:03.386Z,53.06
2017-07-06T13:55:02.683Z,53.11
2017-07-06T14:00:03.182Z,52.33
2017-07-06T14:05:02.654Z,53.14
2017-07-06T14:10:03.121Z,52.21
2017-07-06T14:15:02.630Z,51.54
2017-07-06T14:20:02.950Z,51.12
2017-07-06T14:25:03.486Z,51.59
2017-07-06T14:30:02.954Z,51.86
2017-07-06T14:35:03.505Z,52.57
2017-07-06T14:40:03.017Z,53.06
2017-07-06T14:45:03.462Z,53.63
2017-07-06T14:50:02.938Z,53.5
2017-07-06T14:55:03.246Z,53.69
2017-07-06T15:00:03.582Z,54.38
2017-07-06T15:05:03.124Z,53.92
2017-07-06T15:10:03.439Z,53.92
2017-07-06T15:15:02.881Z,54.46
2017-07-06T15:20:03.307Z,54.52
2017-07-06T15:25:02.762Z,54.75
2017-07-06T15:30:03.052Z,55.01
2017-07-06T15:35:03.552Z,55.67
2017-07-06T15:40:03.085Z,56.72
2017-07-06T15:45:03.315Z,56.72
2017-07-06T15:50:02.881Z,56.13
2017-07-06T15:55:03.419Z,55.84
2017-07-06T16:00:02.835Z,55.62
2017-07-06T16:05:03.170Z,56.76
2017-07-06T16:10:02.707Z,57.06
2017-07-06T16:15:03.094Z,57.03
2017-07-06T16:20:03.574Z,58.01
2017-07-06T16:25:02.953Z,59.12
2017-07-06T16:30:03.500Z,58.34
2017-07-06T16:35:03.064Z,57.88
2017-07-06T16:40:03.380Z,59.15
2017-07-06T16:45:02.638Z,60.42
2017-07-06T16:50:02.921Z,62.15
2017-07-06T16:55:03.421Z,63.41
2017-07-06T17:00:02.912Z,63.09
2017-07-06T17:05:03.443Z,62.7
2017-07-06T17:10:02.779Z,62.12
2017-07-06T17:15:03.178Z,61.79
2017-07-06T17:20:02.690Z,62.86
2017-07-06T17:25:03.160Z,62.25
2017-07-06T17:30:03.517Z,63.32
2017-07-06T17:35:03.079Z,65.46
2017-07-06T17:40:03.553Z,66.34
2017-07-06T17:45:03.011Z,68.16
2017-07-06T17:50:03.522Z,67.86
2017-07-06T17:55:03.027Z,71.11
2017-07-06T18:00:03.279Z,73.4
2017-07-06T18:05:02.811Z,79.1
2017-07-06T18:10:03.333Z,78.87
2017-07-06T18:15:02.693Z,83.29
2017-07-06T18:20:03.190Z,87.62
2017-07-06T18:25:02.703Z,90
2017-07-06T18:30:03.211Z,91.17
2017-07-06T18:35:02.857Z,92.96
2017-07-06T18:40:03.247Z,94.23
2017-07-06T18:45:03.517Z,94.03
2017-07-06T18:50:02.839Z,94.03
2017-07-06T18:55:03.328Z,95
2017-07-06T19:00:02.670Z,95.58
2017-07-06T19:05:03.044Z,96.5
2017-07-06T19:10:03.420Z,96.75
2017-07-06T19:15:02.855Z,96.84
2017-07-06T19:20:03.225Z,96.75
2017-07-06T19:25:02.717Z,96.89
2017-07-06T19:30:03.401Z,96.26
2017-07-06T19:35:02.742Z,93.55
2017-07-06T19:40:03.326Z,91.62
2017-07-06T19:45:02.835Z,89.15
2017-07-06T19:50:03.636Z,86.93
2017-07-06T19:55:03.689Z,87.47
2017-07-06T20:00:02.941Z,84.24
2017-07-06T20:05:03.467Z,83.08
2017-07-06T20:10:02.841Z,78.73
2017-07-06T20:15:03.264Z,74.25
2017-07-06T20:20:02.779Z,74.21
2017-07-06T20:25:03.195Z,73.44
2017-07-06T20:30:02.623Z,71.7
2017-07-06T20:35:03.194Z,70.26
2017-07-06T20:40:02.770Z,69.29
2017-07-06T20:45:03.070Z,66.94
2017-07-06T21:05:03.543Z,62.66
2017-07-06T21:10:03.044Z,61.51
2017-07-06T21:15:03.374Z,59.94
2017-07-06T21:20:02.924Z,58.59
2017-07-06T21:25:03.436Z,57.05
2017-07-06T21:30:02.692Z,55.19
2017-07-06T21:35:03.114Z,53.14
2017-07-06T21:40:03.381Z,48.69
2017-07-06T21:45:02.856Z,50.23
2017-07-06T21:50:03.332Z,47.72
2017-07-06T21:55:02.723Z,48.02
2017-07-06T22:00:03.270Z,47.72
2017-07-06T22:05:02.629Z,48.02
2017-07-06T22:10:03.129Z,48.3
2017-07-06T22:15:02.625Z,48.59
2017-07-06T22:20:03.127Z,48.59
2017-07-06T22:25:02.599Z,48.18
2017-07-06T22:30:03.042Z,47.7
2017-07-06T22:35:03.292Z,47.51
2017-07-06T22:40:02.568Z,47.31
2017-07-06T22:45:02.829Z,47.68
2017-07-06T22:50:03.309Z,47.61
2017-07-06T22:55:02.573Z,47.8
2017-07-06T23:00:03.290Z,48.25
2017-07-06T23:05:03.050Z,48.45
2017-07-06T23:10:03.412Z,48.35
2017-07-06T23:15:02.850Z,48.25
2017-07-06T23:20:03.370Z,48.16
2017-07-06T23:25:02.655Z,48.25
2017-07-06T23:30:02.888Z,48.45
2017-07-06T23:35:03.281Z,48.54
2017-07-06T23:40:02.767Z,48.25
2017-07-06T23:45:03.006Z,48.25
2017-07-06T23:50:03.452Z,48.25
2017-07-06T23:55:02.793Z,48.45
